Time;durP1;ratioP1;P1;durP2;ratioP2;P2;SDS_P1;SDS_P2;PMS_P1;PMS_P2;Temp;Humidity;BMP_temperature;BMP_pressure;BME280_temperature;BME280_humidity;BME280_pressure;Samples;Min_cycle;Max_cycle;Signal;HPM_P1;HPM_P2
2022/10/12 00:01:24;;;;;;;40.00;24.10;;;14.40;39.80;;;;;;5023360;28;20979;-76
2022/10/12 00:03:51;;;;;;;28.53;21.80;;;14.40;39.80;;;;;;5030970;28;20489;-74
2022/10/12 00:06:21;;;;;;;29.60;21.63;;;14.30;39.90;;;;;;5045162;28;20461;-75
2022/10/12 00:08:50;;;;;;;36.20;23.23;;;14.30;40.00;;;;;;5043568;28;21156;-75
2022/10/12 00:11:20;;;;;;;32.20;20.60;;;14.30;40.00;;;;;;5042051;28;20458;-76
2022/10/12 00:13:47;;;;;;;31.60;22.50;;;14.30;39.90;;;;;;5039811;28;20478;-76
2022/10/12 00:16:15;;;;;;;36.60;24.60;;;14.30;40.00;;;;;;5040353;28;20477;-76
2022/10/12 00:18:42;;;;;;;42.07;24.33;;;14.20;39.90;;;;;;5043467;28;20466;-76
2022/10/12 00:21:11;;;;;;;39.97;25.37;;;14.20;39.90;;;;;;5044375;28;20951;-77
2022/10/12 00:23:40;;;;;;;27.90;21.37;;;14.20;40.00;;;;;;5044359;28;20482;-75
2022/10/12 00:26:09;;;;;;;31.63;22.17;;;14.10;40.00;;;;;;5043777;28;20468;-75
2022/10/12 00:28:36;;;;;;;33.53;21.47;;;14.10;40.10;;;;;;5044544;28;20453;-75
2022/10/12 00:31:07;;;;;;;32.40;23.70;;;14.10;40.10;;;;;;5045005;28;20477;-74
2022/10/12 00:33:36;;;;;;;34.87;25.37;;;14.00;40.10;;;;;;5044510;28;20973;-74
2022/10/12 00:36:11;;;;;;;29.00;23.50;;;14.00;40.00;;;;;;5043332;28;20883;-74
2022/10/12 00:38:39;;;;;;;30.93;22.60;;;13.90;40.40;;;;;;5037418;28;20473;-74
2022/10/12 00:41:06;;;;;;;34.73;22.70;;;13.90;40.20;;;;;;5047034;28;20948;-75
2022/10/12 00:43:36;;;;;;;37.20;22.70;;;13.90;40.20;;;;;;5039916;28;20482;-76
2022/10/12 00:46:09;;;;;;;35.77;22.97;;;13.80;40.20;;;;;;5032150;28;20849;-76
2022/10/12 00:48:36;;;;;;;35.30;23.63;;;13.80;40.30;;;;;;5042590;28;20462;-75
2022/10/12 00:51:03;;;;;;;33.07;23.47;;;13.80;40.30;;;;;;5044169;28;20472;-74
2022/10/12 00:53:35;;;;;;;31.97;21.47;;;13.80;40.40;;;;;;5040820;28;21115;-75
2022/10/12 00:56:10;;;;;;;31.73;22.57;;;13.70;40.50;;;;;;5044615;28;20505;-74
2022/10/12 00:58:37;;;;;;;33.60;22.50;;;13.70;40.60;;;;;;5046351;28;20489;-75
2022/10/12 01:01:05;;;;;;;30.10;22.20;;;13.70;40.70;;;;;;5046053;28;20812;-75
2022/10/12 01:03:33;;;;;;;36.83;22.73;;;13.70;40.80;;;;;;5041785;28;20479;-76
2022/10/12 01:06:00;;;;;;;30.50;22.40;;;13.60;40.70;;;;;;5046660;28;20458;-74
2022/10/12 01:08:28;;;;;;;31.23;21.53;;;13.60;40.70;;;;;;5046640;28;20473;-76
2022/10/12 01:10:55;;;;;;;36.00;23.87;;;13.60;40.90;;;;;;5047539;28;20842;-74
2022/10/12 01:13:23;;;;;;;34.50;22.30;;;13.60;40.90;;;;;;5048105;28;20481;-74
2022/10/12 01:15:58;;;;;;;32.33;22.73;;;13.60;41.30;;;;;;5043848;28;20507;-75
2022/10/12 01:18:31;;;;;;;34.00;23.90;;;13.60;41.30;;;;;;5035408;28;20458;-74
2022/10/12 01:21:07;;;;;;;37.23;24.27;;;13.60;41.20;;;;;;5046648;28;20465;-74
2022/10/12 01:24:06;;;;;;;32.90;24.47;;;13.60;41.30;;;;;;5047349;28;20478;-74
2022/10/12 01:27:01;;;;;;;32.27;22.70;;;13.60;41.90;;;;;;5040032;28;20450;-74
2022/10/12 01:30:05;;;;;;;37.50;23.60;;;13.60;42.00;;;;;;5031916;28;20464;-74
2022/10/12 01:32:37;;;;;;;34.77;23.77;;;13.60;42.10;;;;;;5022097;28;20485;-75
2022/10/12 01:35:10;;;;;;;34.30;24.23;;;13.60;41.70;;;;;;5045513;28;20993;-75
2022/10/12 01:37:45;;;;;;;33.03;23.03;;;13.50;41.80;;;;;;5046247;28;20474;-75
2022/10/12 01:40:19;;;;;;;36.83;22.73;;;13.60;41.80;;;;;;5047186;28;20464;-76
2022/10/12 01:42:47;;;;;;;36.00;25.07;;;13.60;41.70;;;;;;5047408;28;20478;-75
2022/10/12 01:45:17;;;;;;;32.90;23.80;;;13.60;41.60;;;;;;5045000;28;20462;-75
2022/10/12 01:47:48;;;;;;;35.07;23.27;;;13.60;41.70;;;;;;5044576;28;20795;-75
2022/10/12 01:50:17;;;;;;;37.47;22.90;;;13.60;41.60;;;;;;5042342;28;20513;-76
2022/10/12 01:52:51;;;;;;;33.07;22.93;;;13.70;41.80;;;;;;5043919;28;20490;-74
2022/10/12 01:55:41;;;;;;;39.87;25.20;;;13.70;41.80;;;;;;5041518;28;20458;-74
2022/10/12 01:58:25;;;;;;;42.30;26.57;;;13.70;42.00;;;;;;5039264;28;20454;-75
2022/10/12 02:01:04;;;;;;;37.53;24.70;;;13.80;41.90;;;;;;5041977;28;20560;-75
2022/10/12 02:03:37;;;;;;;34.77;24.30;;;13.80;41.70;;;;;;5041006;28;20488;-75
2022/10/12 02:06:09;;;;;;;33.60;24.27;;;13.90;41.90;;;;;;5042701;28;20892;-75
2022/10/12 02:08:41;;;;;;;39.27;23.37;;;13.80;41.90;;;;;;5043958;28;20462;-77
2022/10/12 02:11:11;;;;;;;35.30;23.97;;;13.90;42.00;;;;;;5045403;28;20459;-75
2022/10/12 02:13:42;;;;;;;39.47;26.90;;;13.90;41.90;;;;;;5046256;28;20474;-74
2022/10/12 02:16:13;;;;;;;36.73;23.20;;;13.90;41.90;;;;;;5036557;28;20463;-75
2022/10/12 02:18:44;;;;;;;33.20;22.50;;;13.90;41.80;;;;;;5043051;28;20458;-75
2022/10/12 02:21:12;;;;;;;34.77;23.40;;;13.90;41.80;;;;;;5046195;28;20454;-74
2022/10/12 02:23:39;;;;;;;37.13;25.63;;;13.90;41.70;;;;;;5045497;28;20486;-74
2022/10/12 02:26:08;;;;;;;45.07;26.47;;;13.90;41.70;;;;;;5044476;28;20458;-74
2022/10/12 02:28:36;;;;;;;43.70;27.60;;;13.90;41.80;;;;;;5040548;28;20545;-75
2022/10/12 02:31:11;;;;;;;44.33;27.90;;;13.80;41.90;;;;;;5040597;28;20474;-74
2022/10/12 02:33:46;;;;;;;46.80;29.50;;;13.90;42.10;;;;;;5039542;28;20474;-74
2022/10/12 02:36:19;;;;;;;44.83;28.43;;;13.90;42.00;;;;;;5043357;28;20482;-74
2022/10/12 02:38:53;;;;;;;44.33;28.70;;;13.90;42.00;;;;;;5038572;28;21133;-75
2022/10/12 02:41:24;;;;;;;45.73;28.90;;;13.90;42.00;;;;;;5044927;28;20469;-75
2022/10/12 02:43:55;;;;;;;39.30;26.67;;;13.90;42.00;;;;;;5040966;28;20486;-73
2022/10/12 02:46:26;;;;;;;52.00;26.83;;;14.00;42.00;;;;;;5045334;28;20485;-74
2022/10/12 02:48:55;;;;;;;48.00;28.30;;;14.00;42.00;;;;;;5040257;28;20542;-73
2022/10/12 02:51:23;;;;;;;44.10;29.37;;;14.00;41.80;;;;;;5046331;28;21109;-74
2022/10/12 02:53:50;;;;;;;45.10;27.60;;;14.10;41.80;;;;;;5040894;28;20486;-75
2022/10/12 02:56:17;;;;;;;53.70;30.00;;;14.00;41.90;;;;;;5044280;28;20490;-75
2022/10/12 02:58:46;;;;;;;44.13;27.60;;;14.00;41.90;;;;;;5035260;28;20471;-75
2022/10/12 03:01:15;;;;;;;45.93;29.10;;;14.10;41.90;;;;;;5041048;28;20489;-74
2022/10/12 03:03:44;;;;;;;45.10;28.03;;;14.10;41.70;;;;;;5041295;28;21016;-75
2022/10/12 03:06:11;;;;;;;42.40;28.50;;;14.10;41.70;;;;;;5046077;28;20822;-76
2022/10/12 03:08:38;;;;;;;41.97;26.97;;;14.00;41.70;;;;;;5040795;28;20467;-74
2022/10/12 03:11:07;;;;;;;45.57;28.10;;;14.00;41.60;;;;;;5042576;28;20490;-76
2022/10/12 03:13:34;;;;;;;45.43;29.50;;;14.10;41.80;;;;;;5038763;28;20486;-74
2022/10/12 03:16:02;;;;;;;45.33;28.23;;;14.10;41.80;;;;;;5044515;28;21044;-74
2022/10/12 03:18:29;;;;;;;46.60;28.70;;;14.10;41.70;;;;;;5036430;28;21226;-76
2022/10/12 03:20:57;;;;;;;42.40;26.23;;;14.10;41.60;;;;;;5042920;28;20458;-74
2022/10/12 03:23:24;;;;;;;46.53;29.77;;;14.10;41.60;;;;;;5042011;28;20493;-75
2022/10/12 03:25:51;;;;;;;50.80;29.70;;;14.10;41.60;;;;;;5039966;28;20469;-75
2022/10/12 03:28:18;;;;;;;51.57;30.63;;;14.20;41.50;;;;;;5034042;28;20481;-75
2022/10/12 03:30:44;;;;;;;44.50;28.10;;;14.20;42.20;;;;;;5037281;28;20485;-75
2022/10/12 03:33:12;;;;;;;43.73;29.13;;;14.20;41.40;;;;;;5037738;28;20618;-76
2022/10/12 03:35:40;;;;;;;48.03;29.40;;;14.20;41.40;;;;;;5043637;28;20465;-74
2022/10/12 03:38:08;;;;;;;49.53;29.90;;;14.20;41.40;;;;;;5037634;28;20473;-74
2022/10/12 03:40:35;;;;;;;51.07;30.47;;;14.20;41.50;;;;;;5039823;28;20462;-75
2022/10/12 03:43:02;;;;;;;52.27;26.93;;;14.20;41.50;;;;;;5037819;28;20481;-75
2022/10/12 03:45:28;;;;;;;45.87;27.00;;;14.20;41.50;;;;;;5039760;28;21073;-75
2022/10/12 03:47:55;;;;;;;43.90;27.60;;;14.20;41.50;;;;;;5038152;28;20573;-74
2022/10/12 03:50:22;;;;;;;43.47;27.03;;;14.10;41.50;;;;;;5043300;28;20458;-74
2022/10/12 03:52:49;;;;;;;41.17;26.07;;;14.10;41.60;;;;;;5045346;28;20875;-75
2022/10/12 03:55:17;;;;;;;52.63;31.03;;;14.10;41.80;;;;;;5044464;28;20476;-74
2022/10/12 03:57:44;;;;;;;47.47;29.00;;;14.10;41.90;;;;;;5041096;28;20474;-76
2022/10/12 04:00:12;;;;;;;49.80;28.70;;;14.10;41.80;;;;;;5039321;28;20990;-76
2022/10/12 04:02:39;;;;;;;43.57;28.87;;;14.10;42.00;;;;;;5040681;28;20470;-76
2022/10/12 04:05:06;;;;;;;47.57;27.83;;;14.00;42.10;;;;;;5041655;28;20466;-77
2022/10/12 04:07:33;;;;;;;51.83;29.43;;;14.00;42.10;;;;;;5042725;28;20459;-72
2022/10/12 04:10:00;;;;;;;41.50;27.47;;;14.00;42.20;;;;;;5045849;28;20464;-76
2022/10/12 04:12:28;;;;;;;47.20;29.93;;;14.00;42.20;;;;;;5042074;28;20455;-76
2022/10/12 04:14:55;;;;;;;57.07;31.27;;;14.00;42.20;;;;;;5043649;28;20465;-76
2022/10/12 04:17:21;;;;;;;52.73;31.90;;;14.00;42.20;;;;;;5044814;28;20532;-75
2022/10/12 04:19:48;;;;;;;53.23;30.13;;;14.00;42.30;;;;;;5040537;28;20458;-73
2022/10/12 04:22:15;;;;;;;50.97;30.03;;;14.00;42.20;;;;;;5047549;28;20464;-73
2022/10/12 04:24:42;;;;;;;50.17;29.50;;;14.00;42.20;;;;;;5043077;28;20478;-72
2022/10/12 04:27:09;;;;;;;47.73;30.10;;;14.10;42.40;;;;;;5042556;28;20887;-72
2022/10/12 04:29:38;;;;;;;44.87;30.23;;;14.10;42.20;;;;;;5045334;28;20580;-71
2022/10/12 04:32:05;;;;;;;44.43;28.30;;;14.10;42.20;;;;;;5044642;28;20482;-69
2022/10/12 04:34:31;;;;;;;53.37;30.07;;;14.10;42.20;;;;;;5041806;28;20541;-68
2022/10/12 04:36:58;;;;;;;47.47;27.70;;;14.10;42.10;;;;;;5041682;28;20488;-70
2022/10/12 04:39:25;;;;;;;47.90;30.23;;;14.20;42.00;;;;;;5041286;28;20492;-71
2022/10/12 04:41:51;;;;;;;53.13;31.50;;;14.20;42.00;;;;;;5042472;28;21072;-72
2022/10/12 04:44:18;;;;;;;44.87;29.97;;;14.10;42.20;;;;;;5043158;28;20478;-72
2022/10/12 04:46:46;;;;;;;47.53;31.40;;;14.20;42.10;;;;;;5041447;28;20452;-71
2022/10/12 04:49:13;;;;;;;49.60;33.33;;;14.20;42.10;;;;;;5041749;28;20466;-79
2022/10/12 04:51:40;;;;;;;61.70;32.93;;;14.20;41.90;;;;;;5040429;28;20491;-76
2022/10/12 04:54:07;;;;;;;52.33;30.60;;;14.20;42.00;;;;;;5037025;28;20481;-78
2022/10/12 04:56:34;;;;;;;52.33;30.93;;;14.20;42.00;;;;;;5043087;28;21258;-77
2022/10/12 04:59:00;;;;;;;62.87;32.13;;;14.20;42.00;;;;;;5044581;28;20463;-77
2022/10/12 05:01:27;;;;;;;48.80;31.37;;;14.20;41.90;;;;;;5047267;28;20474;-78
2022/10/12 05:03:55;;;;;;;51.43;31.50;;;14.20;42.00;;;;;;5038033;28;20489;-79
2022/10/12 05:06:22;;;;;;;51.80;31.97;;;14.20;41.90;;;;;;5042024;28;20462;-78
2022/10/12 05:08:49;;;;;;;52.47;30.77;;;14.30;42.00;;;;;;5041007;28;20465;-76
2022/10/12 05:11:15;;;;;;;58.73;33.23;;;14.30;41.80;;;;;;5048342;28;20462;-79
2022/10/12 05:13:42;;;;;;;56.43;31.40;;;14.30;41.70;;;;;;5042671;28;21017;-78
2022/10/12 05:16:09;;;;;;;57.08;35.03;;;14.30;41.70;;;;;;5041185;28;20467;-77
2022/10/12 05:18:36;;;;;;;48.30;33.40;;;14.30;42.40;;;;;;5039862;28;20220;-79
2022/10/12 05:21:04;;;;;;;58.27;33.80;;;14.30;42.00;;;;;;5042780;28;20466;-79
2022/10/12 05:23:30;;;;;;;54.97;32.40;;;14.30;41.70;;;;;;5042328;28;20481;-81
2022/10/12 05:25:57;;;;;;;51.90;30.67;;;14.40;41.50;;;;;;5043485;28;20450;-79
2022/10/12 05:28:24;;;;;;;72.60;32.57;;;14.40;41.50;;;;;;5047462;28;20450;-79
2022/10/12 05:30:51;;;;;;;57.43;32.00;;;14.40;41.40;;;;;;5036057;28;20478;-78
2022/10/12 05:33:18;;;;;;;53.60;30.47;;;14.40;41.40;;;;;;5043635;28;20486;-78
2022/10/12 05:35:45;;;;;;;50.53;31.90;;;14.40;41.30;;;;;;5041637;28;20466;-78
2022/10/12 05:38:13;;;;;;;46.23;30.93;;;14.40;41.20;;;;;;5043247;28;20475;-79
2022/10/12 05:40:40;;;;;;;45.50;29.80;;;14.40;41.20;;;;;;5041381;28;20469;-79
2022/10/12 05:43:07;;;;;;;51.57;30.77;;;14.40;41.20;;;;;;5041008;28;20486;-77
2022/10/12 05:45:34;;;;;;;67.47;32.87;;;14.40;41.20;;;;;;5044618;28;20455;-75
2022/10/12 05:48:00;;;;;;;58.07;31.80;;;14.40;41.20;;;;;;5044697;28;20450;-75
2022/10/12 05:50:27;;;;;;;52.63;31.10;;;14.40;41.30;;;;;;5043571;28;20466;-74
2022/10/12 05:52:54;;;;;;;49.40;30.33;;;14.40;41.20;;;;;;5040771;28;20498;-76
2022/10/12 05:55:22;;;;;;;46.80;30.33;;;14.30;41.30;;;;;;5044037;22;20491;-61
2022/10/12 05:57:49;;;;;;;49.00;31.47;;;14.30;41.30;;;;;;5002904;28;20483;-61
2022/10/12 06:00:16;;;;;;;50.60;31.03;;;14.30;41.30;;;;;;5001889;28;21023;-61
2022/10/12 06:02:43;;;;;;;44.53;29.13;;;14.30;41.40;;;;;;5001052;28;20459;-60
2022/10/12 06:05:10;;;;;;;52.30;30.67;;;14.30;41.30;;;;;;4999568;28;21168;-63
2022/10/12 06:07:37;;;;;;;44.00;30.30;;;14.30;41.30;;;;;;5002508;28;20953;-61
2022/10/12 06:10:04;;;;;;;45.73;31.13;;;14.30;41.30;;;;;;5002369;28;20462;-63
2022/10/12 06:12:33;;;;;;;45.50;32.43;;;14.40;41.30;;;;;;5002819;28;20976;-63
2022/10/12 06:14:59;;;;;;;48.93;34.57;;;14.30;41.30;;;;;;5001567;28;20466;-62
2022/10/12 06:17:26;;;;;;;50.40;36.10;;;14.30;41.30;;;;;;5001121;28;20502;-72
2022/10/12 06:19:53;;;;;;;48.47;34.20;;;14.30;42.10;;;;;;5002208;28;21376;-64
2022/10/12 06:22:19;;;;;;;51.40;32.20;;;14.40;41.30;;;;;;5000491;28;20845;-69
2022/10/12 06:24:46;;;;;;;44.33;29.23;;;14.40;41.30;;;;;;5007742;28;21104;-66
2022/10/12 06:27:13;;;;;;;47.30;31.87;;;14.40;41.00;;;;;;5001126;28;20456;-69
2022/10/12 06:29:41;;;;;;;45.17;29.97;;;14.40;41.70;;;;;;5000109;28;20464;-65
2022/10/12 06:32:08;;;;;;;49.37;31.90;;;14.40;41.10;;;;;;4997784;28;20480;-65
2022/10/12 06:34:35;;;;;;;41.00;29.53;;;14.40;41.10;;;;;;5003052;28;20468;-66
2022/10/12 06:37:02;;;;;;;43.30;29.70;;;14.40;41.30;;;;;;5000653;28;20479;-67
2022/10/12 06:39:29;;;;;;;49.07;29.83;;;14.50;41.20;;;;;;5002992;28;20471;-63
2022/10/12 06:41:55;;;;;;;43.33;29.10;;;14.50;41.00;;;;;;5000407;28;20472;-69
2022/10/12 06:44:22;;;;;;;46.00;30.90;;;14.50;41.10;;;;;;4997344;28;20540;-70
2022/10/12 06:46:50;;;;;;;44.27;30.70;;;14.50;41.00;;;;;;5003468;28;20868;-64
2022/10/12 06:49:17;;;;;;;40.13;27.73;;;14.50;41.00;;;;;;5009690;28;20459;-62
2022/10/12 06:51:44;;;;;;;42.97;29.87;;;14.50;41.00;;;;;;5005655;28;20464;-66
2022/10/12 06:54:11;;;;;;;42.20;28.97;;;14.50;40.70;;;;;;4996199;28;20464;-67
2022/10/12 06:56:38;;;;;;;52.93;30.90;;;14.50;40.80;;;;;;4998097;28;20564;-63
2022/10/12 06:59:05;;;;;;;48.10;32.57;;;14.60;40.70;;;;;;5005791;28;21013;-72
2022/10/12 07:01:32;;;;;;;50.30;30.30;;;14.60;40.70;;;;;;5005702;28;20472;-71
2022/10/12 07:04:00;;;;;;;43.03;28.37;;;14.60;40.70;;;;;;5006164;28;20482;-72
2022/10/12 07:06:27;;;;;;;44.00;30.33;;;14.60;40.60;;;;;;5002876;28;20480;-76
2022/10/12 07:08:54;;;;;;;46.10;30.13;;;14.60;40.60;;;;;;5006574;28;20456;-68
2022/10/12 07:11:21;;;;;;;44.20;30.40;;;14.60;40.50;;;;;;5004498;28;20464;-68
2022/10/12 07:13:48;;;;;;;45.50;29.87;;;14.70;40.40;;;;;;4995341;28;21271;-69
2022/10/12 07:16:15;;;;;;;37.23;29.10;;;14.70;40.30;;;;;;5004203;28;20483;-70
2022/10/12 07:18:42;;;;;;;47.63;30.07;;;14.80;40.20;;;;;;4992524;28;21346;-64
2022/10/12 07:21:10;;;;;;;43.30;29.30;;;14.80;40.00;;;;;;5004361;28;20475;-66
2022/10/12 07:23:37;;;;;;;41.10;28.87;;;14.80;39.80;;;;;;5000299;28;20468;-66
2022/10/12 07:26:05;;;;;;;44.80;30.73;;;14.90;39.80;;;;;;5003654;28;20482;-65
2022/10/12 07:28:33;;;;;;;44.80;30.27;;;14.90;39.80;;;;;;5003074;28;20813;-66
2022/10/12 07:31:02;;;;;;;43.27;29.57;;;14.90;39.90;;;;;;4997527;28;20497;-68
2022/10/12 07:33:31;;;;;;;46.97;28.47;;;14.90;39.90;;;;;;4998955;28;20463;-64
2022/10/12 07:35:58;;;;;;;51.40;29.57;;;14.90;40.00;;;;;;4999313;28;20875;-69
2022/10/12 07:38:26;;;;;;;50.83;30.10;;;15.00;39.80;;;;;;5002789;28;20475;-64
2022/10/12 07:40:53;;;;;;;44.90;27.10;;;15.00;39.70;;;;;;5003758;28;20467;-63
2022/10/12 07:43:20;;;;;;;43.00;28.93;;;15.10;39.70;;;;;;5007872;28;20470;-62
2022/10/12 07:45:46;;;;;;;36.90;28.53;;;15.10;39.60;;;;;;5003816;28;21037;-65
2022/10/12 07:48:13;;;;;;;38.70;27.57;;;15.10;38.90;;;;;;4998605;28;20467;-67
2022/10/12 07:50:40;;;;;;;39.00;29.50;;;15.10;39.00;;;;;;4999581;28;20463;-63
2022/10/12 07:53:08;;;;;;;40.73;28.27;;;15.10;39.00;;;;;;5001929;28;20470;-63
2022/10/12 07:55:36;;;;;;;55.43;27.10;;;15.10;39.10;;;;;;5003560;28;20499;-63
2022/10/12 07:58:04;;;;;;;35.30;27.80;;;15.20;38.70;;;;;;5000266;28;20870;-64
2022/10/12 08:00:31;;;;;;;38.67;26.90;;;15.20;38.60;;;;;;5001010;28;20472;-63
2022/10/12 08:02:58;;;;;;;42.00;28.40;;;15.20;39.20;;;;;;5008309;28;21119;-62
2022/10/12 08:05:25;;;;;;;42.40;29.40;;;15.20;38.70;;;;;;4997030;28;20484;-62
2022/10/12 08:07:53;;;;;;;39.73;27.23;;;15.10;38.70;;;;;;5002517;28;20495;-62
2022/10/12 08:10:21;;;;;;;40.40;28.50;;;15.10;39.40;;;;;;5000439;28;20460;-62
2022/10/12 08:12:51;;;;;;;36.57;27.60;;;15.20;38.90;;;;;;5004809;28;20456;-62
2022/10/12 08:15:18;;;;;;;40.23;26.50;;;15.20;38.70;;;;;;4997561;28;20611;-62
2022/10/12 08:17:45;;;;;;;37.80;27.13;;;15.20;38.70;;;;;;5003438;28;20455;-62
2022/10/12 08:20:12;;;;;;;41.30;26.53;;;15.20;38.70;;;;;;5000872;28;20832;-61
2022/10/12 08:22:39;;;;;;;42.67;30.30;;;15.20;38.60;;;;;;5003152;28;20471;-61
2022/10/12 08:25:06;;;;;;;46.07;31.00;;;15.30;38.50;;;;;;5000199;28;20495;-61
2022/10/12 08:27:34;;;;;;;50.40;30.30;;;15.40;38.50;;;;;;5002497;28;20463;-61
2022/10/12 08:30:02;;;;;;;36.93;26.60;;;15.40;38.40;;;;;;5009148;28;20471;-61
2022/10/12 08:32:31;;;;;;;33.77;24.40;;;15.40;38.10;;;;;;5000543;28;20480;-62
2022/10/12 08:34:58;;;;;;;39.80;27.10;;;15.50;38.00;;;;;;5002364;28;20468;-61
2022/10/12 08:37:25;;;;;;;39.00;27.13;;;15.50;37.90;;;;;;5002751;28;20460;-61
2022/10/12 08:39:52;;;;;;;44.83;26.70;;;15.60;37.90;;;;;;5001863;28;21059;-62
2022/10/12 08:42:32;;;;;;;38.93;26.97;;;15.50;38.00;;;;;;5006445;28;21003;-62
2022/10/12 08:45:13;;;;;;;36.60;26.47;;;15.50;38.00;;;;;;5003609;28;20967;-62
2022/10/12 08:47:43;;;;;;;36.93;26.53;;;15.50;38.10;;;;;;5006897;28;20867;-60
2022/10/12 08:50:18;;;;;;;48.40;27.50;;;15.60;37.90;;;;;;4998972;28;20467;-60
2022/10/12 08:52:51;;;;;;;36.43;26.63;;;15.60;37.90;;;;;;5005429;28;20455;-61
2022/10/12 08:55:26;;;;;;;37.30;25.53;;;15.60;37.80;;;;;;5004440;28;20494;-62
2022/10/12 08:57:52;;;;;;;37.77;25.90;;;15.70;37.70;;;;;;5007675;28;20447;-61
2022/10/12 09:00:21;;;;;;;36.63;25.80;;;15.70;37.50;;;;;;5003092;28;20459;-61
2022/10/12 09:03:00;;;;;;;38.20;24.97;;;15.70;37.20;;;;;;5000968;28;20455;-61
2022/10/12 09:05:33;;;;;;;38.43;26.23;;;15.80;37.20;;;;;;5007101;28;20565;-61
2022/10/12 09:08:05;;;;;;;37.37;26.00;;;15.80;37.00;;;;;;5004451;28;20817;-61
2022/10/12 09:10:44;;;;;;;43.80;26.10;;;15.80;37.10;;;;;;5003429;28;20476;-63
2022/10/12 09:13:21;;;;;;;44.17;26.37;;;15.80;36.80;;;;;;5007429;28;20459;-61
2022/10/12 09:15:56;;;;;;;39.53;26.10;;;15.90;37.20;;;;;;5002358;28;20475;-62
2022/10/12 09:18:31;;;;;;;39.10;23.83;;;15.90;37.30;;;;;;5007341;28;20487;-63
2022/10/12 09:21:01;;;;;;;36.77;25.00;;;15.90;36.80;;;;;;5003662;28;20459;-61
2022/10/12 09:23:31;;;;;;;38.87;25.43;;;15.90;36.90;;;;;;5005869;28;20467;-61
2022/10/12 09:26:15;;;;;;;32.80;23.70;;;16.00;36.80;;;;;;4997254;28;21008;-65
2022/10/12 09:28:44;;;;;;;33.20;23.37;;;16.10;36.80;;;;;;5005488;28;20460;-62
2022/10/12 09:31:24;;;;;;;35.47;23.40;;;16.10;36.60;;;;;;5003486;28;20467;-62
2022/10/12 09:33:54;;;;;;;39.27;25.83;;;16.20;36.60;;;;;;5004003;28;20472;-61
2022/10/12 09:36:23;;;;;;;34.47;23.53;;;16.20;36.20;;;;;;5003528;28;20490;-62
2022/10/12 09:38:51;;;;;;;36.27;24.30;;;16.20;36.10;;;;;;5006529;28;20479;-64
2022/10/12 09:41:23;;;;;;;38.13;25.60;;;16.30;36.10;;;;;;5010478;28;20468;-62
2022/10/12 09:43:53;;;;;;;33.47;23.80;;;16.50;35.90;;;;;;5003474;28;20467;-62
2022/10/12 09:46:28;;;;;;;34.13;21.80;;;16.90;35.30;;;;;;5002087;28;20523;-62
2022/10/12 09:48:59;;;;;;;28.93;21.50;;;17.20;34.40;;;;;;5006565;28;20460;-62
2022/10/12 09:51:27;;;;;;;30.53;22.00;;;17.40;33.70;;;;;;5001477;28;20471;-62
2022/10/12 09:53:57;;;;;;;30.60;20.47;;;17.70;32.70;;;;;;5009687;28;20467;-62
2022/10/12 09:56:29;;;;;;;32.87;21.93;;;18.00;31.40;;;;;;5008563;28;20502;-62
2022/10/12 09:59:00;;;;;;;40.27;23.37;;;18.20;31.10;;;;;;4996283;28;20488;-62
2022/10/12 10:01:30;;;;;;;30.97;20.53;;;18.50;30.50;;;;;;4998961;28;21027;-62
2022/10/12 10:04:16;;;;;;;30.40;21.50;;;18.60;29.90;;;;;;5001029;28;20459;-62
2022/10/12 10:06:45;;;;;;;30.90;21.53;;;18.80;28.50;;;;;;5005031;28;21076;-62
2022/10/12 10:09:28;;;;;;;28.27;20.00;;;18.80;28.20;;;;;;5006349;28;20949;-62
2022/10/12 10:11:56;;;;;;;27.87;19.10;;;18.60;28.20;;;;;;5008094;28;20467;-61
2022/10/12 10:14:23;;;;;;;26.70;18.67;;;18.60;27.80;;;;;;5001896;28;20456;-61
2022/10/12 10:16:53;;;;;;;30.50;19.90;;;18.60;28.00;;;;;;5009010;28;20483;-63
2022/10/12 10:19:23;;;;;;;25.27;18.57;;;18.50;28.10;;;;;;5001150;28;20563;-62
2022/10/12 10:21:52;;;;;;;26.47;18.83;;;18.60;27.50;;;;;;4999421;28;20456;-62
2022/10/12 10:24:27;;;;;;;23.70;18.33;;;18.60;27.60;;;;;;5004001;28;20467;-61
2022/10/12 10:26:56;;;;;;;25.40;18.10;;;18.60;27.50;;;;;;5006624;28;21037;-62
2022/10/12 10:29:44;;;;;;;25.27;18.53;;;18.70;26.60;;;;;;5001870;28;20461;-62
2022/10/12 10:32:25;;;;;;;31.13;18.60;;;18.70;26.60;;;;;;5001425;28;20484;-61
2022/10/12 10:35:04;;;;;;;25.07;17.93;;;18.70;26.80;;;;;;4998680;28;20490;-62
2022/10/12 10:37:33;;;;;;;27.40;19.63;;;18.80;26.90;;;;;;5003467;28;20547;-62
2022/10/12 10:40:01;;;;;;;26.50;18.13;;;18.90;27.00;;;;;;5006043;28;20472;-63
2022/10/12 10:42:31;;;;;;;28.77;17.90;;;19.00;27.00;;;;;;4998195;28;20514;-66
2022/10/12 10:45:00;;;;;;;24.40;16.80;;;19.10;26.70;;;;;;4998882;28;20488;-62
2022/10/12 10:47:31;;;;;;;23.57;16.63;;;19.20;26.10;;;;;;5007891;28;20471;-62
2022/10/12 10:50:00;;;;;;;22.77;16.43;;;19.10;25.70;;;;;;5000869;28;20462;-67
2022/10/12 10:52:29;;;;;;;18.17;14.90;;;19.00;25.60;;;;;;5000584;28;20463;-68
2022/10/12 10:55:15;;;;;;;22.30;16.43;;;19.00;26.60;;;;;;5010475;28;20998;-68
2022/10/12 10:57:49;;;;;;;29.63;16.50;;;19.00;26.20;;;;;;5008300;28;20466;-66
2022/10/12 11:00:19;;;;;;;28.50;15.13;;;19.00;26.20;;;;;;4997179;28;20494;-70
2022/10/12 11:02:52;;;;;;;25.10;15.27;;;19.00;26.20;;;;;;4998152;28;20956;-71
2022/10/12 11:05:24;;;;;;;21.23;15.50;;;19.00;26.30;;;;;;5004374;28;20479;-72
2022/10/12 11:07:53;;;;;;;18.00;12.87;;;19.00;26.20;;;;;;5005915;28;20618;-65
2022/10/12 11:10:28;;;;;;;18.83;13.43;;;19.00;26.00;;;;;;5000715;28;20452;-67
2022/10/12 11:13:03;;;;;;;17.87;13.20;;;19.00;25.90;;;;;;5001152;28;20466;-71
2022/10/12 11:15:35;;;;;;;22.33;14.73;;;19.00;25.90;;;;;;4996820;28;21002;-69
2022/10/12 11:18:12;;;;;;;24.67;12.97;;;19.10;25.60;;;;;;5001166;28;20468;-70
2022/10/12 11:20:48;;;;;;;18.97;13.27;;;19.10;25.30;;;;;;4997685;28;20488;-63
2022/10/12 11:23:24;;;;;;;16.97;13.20;;;19.30;25.20;;;;;;5007584;28;20543;-63
2022/10/12 11:26:03;;;;;;;25.13;13.77;;;19.40;25.00;;;;;;5003331;28;20483;-62
2022/10/12 11:28:32;;;;;;;30.23;14.70;;;19.50;24.90;;;;;;4995770;28;20552;-62
2022/10/12 11:31:01;;;;;;;22.10;13.83;;;19.60;24.40;;;;;;5002235;28;20472;-65
2022/10/12 11:33:37;;;;;;;22.63;13.80;;;19.60;24.20;;;;;;4997079;28;20468;-64
2022/10/12 11:36:07;;;;;;;23.40;12.93;;;19.60;24.00;;;;;;5001330;28;20501;-67
2022/10/12 11:38:38;;;;;;;23.47;13.50;;;19.50;23.70;;;;;;5004866;28;20506;-69
2022/10/12 11:41:09;;;;;;;22.23;12.47;;;19.50;23.50;;;;;;5001717;28;20834;-66
2022/10/12 11:43:40;;;;;;;20.67;14.37;;;19.40;23.60;;;;;;4999743;28;20467;-66
2022/10/12 11:46:12;;;;;;;21.67;13.97;;;19.30;24.70;;;;;;5004917;28;20491;-63
2022/10/12 11:48:46;;;;;;;16.73;13.20;;;19.20;24.40;;;;;;5005091;28;21141;-65
2022/10/12 11:51:13;;;;;;;23.57;11.80;;;19.10;24.70;;;;;;5004865;28;20464;-67
2022/10/12 11:53:48;;;;;;;22.57;13.40;;;19.10;24.80;;;;;;5004612;28;20471;-67
2022/10/12 11:56:20;;;;;;;18.77;12.90;;;19.10;24.40;;;;;;4995689;28;20494;-64
2022/10/12 11:58:51;;;;;;;25.10;14.47;;;19.00;24.50;;;;;;5004542;28;20460;-62
2022/10/12 12:01:35;;;;;;;18.47;13.90;;;19.00;24.20;;;;;;4997940;28;20505;-62
2022/10/12 12:04:22;;;;;;;19.93;13.77;;;19.00;23.90;;;;;;4993135;28;20460;-61
2022/10/12 12:06:55;;;;;;;23.23;14.23;;;19.10;23.70;;;;;;4996352;28;20679;-65
2022/10/12 12:09:39;;;;;;;25.80;14.70;;;19.10;23.90;;;;;;5000490;28;20456;-64
2022/10/12 12:12:18;;;;;;;19.30;13.60;;;19.40;23.70;;;;;;5003158;28;20928;-65
2022/10/12 12:14:49;;;;;;;21.90;12.57;;;19.50;23.70;;;;;;5002212;28;20501;-62
2022/10/12 12:17:24;;;;;;;22.17;12.37;;;19.70;23.40;;;;;;5003969;28;20990;-64
2022/10/12 12:19:54;;;;;;;18.30;12.57;;;19.70;23.30;;;;;;5006964;28;20486;-61
2022/10/12 12:22:29;;;;;;;17.17;11.80;;;19.80;23.10;;;;;;5006147;28;21035;-62
2022/10/12 12:25:18;;;;;;;20.87;12.10;;;19.80;23.10;;;;;;5005237;28;20469;-63
2022/10/12 12:27:49;;;;;;;18.13;12.03;;;19.70;22.90;;;;;;5005025;28;20460;-63
2022/10/12 12:30:38;;;;;;;18.50;12.43;;;19.60;22.80;;;;;;5003606;28;20470;-63
2022/10/12 12:33:25;;;;;;;24.60;14.17;;;19.50;23.00;;;;;;4998379;28;20479;-62
2022/10/12 12:35:56;;;;;;;19.63;13.37;;;19.40;23.10;;;;;;5005988;28;20850;-60
2022/10/12 12:38:27;;;;;;;19.27;12.93;;;19.30;23.40;;;;;;4996911;28;20467;-64
2022/10/12 12:41:03;;;;;;;20.73;13.60;;;19.20;23.60;;;;;;5005233;28;20515;-63
2022/10/12 12:43:58;;;;;;;19.90;13.00;;;19.10;23.90;;;;;;4998842;28;20459;-63